Atomic City, Idaho
Current Conditions -  °F | °C
As of 9:53 PM on Wednesday 26 Nov 2014 (Local Time) from KIDA Reporting Station
Clear Clear  
Wind Chill: 34°   Ceiling: Unl
Heat Index: 39°   Visibility: 10mi
Dew Point: 31°   Wind: 7mph
Humidity: 73%   Direction: 220°SW
Pressure: 30.26"   Gusts: NA
Location:  43.44°N, 112.81°W
Report Text: KIDA 270453Z AUTO 22006KT 10SM CLR 04/M01 A3026 RMK AO2 SLP254 T00391006
Loading
Personal Weather Stations






























Interactive Weather Map New forecast layout! Learn more

10-Day Weather Forecast

Advertisements
Track Severe Weather on mobile